createdAt,value
2023-03-25T00:03:37.496Z,9.91
2023-03-25T00:09:39.459Z,9.74
2023-03-25T00:15:47.650Z,9.55
2023-03-25T00:21:52.758Z,9.48
2023-03-25T00:27:54.642Z,9.30
2023-03-25T00:33:58.085Z,9.49
2023-03-25T00:40:00.251Z,9.21
2023-03-25T00:46:02.160Z,9.31
2023-03-25T00:52:04.550Z,9.34
2023-03-25T00:58:06.453Z,9.34
2023-03-25T01:04:12.636Z,9.40
2023-03-25T01:10:14.993Z,9.43
2023-03-25T01:16:17.066Z,9.44
2023-03-25T01:22:18.989Z,9.39
2023-03-25T01:28:21.189Z,9.21
2023-03-25T01:34:23.644Z,9.34
2023-03-25T01:40:25.717Z,9.31
2023-03-25T01:46:27.743Z,9.46
2023-03-25T01:52:30.708Z,9.45
2023-03-25T01:58:35.649Z,9.50
2023-03-25T02:04:59.176Z,9.48
2023-03-25T02:11:01.754Z,9.39
2023-03-25T02:17:42.283Z,9.47
2023-03-25T02:24:35.463Z,9.32
2023-03-25T02:31:28.593Z,9.29
2023-03-25T02:38:01.938Z,9.33
2023-03-25T02:44:08.575Z,9.01
2023-03-25T02:50:25.324Z,9.04
2023-03-25T02:56:29.384Z,8.80
2023-03-25T03:02:34.115Z,8.37
2023-03-25T03:08:57.971Z,8.52
2023-03-25T03:15:29.656Z,8.29
2023-03-25T03:21:44.274Z,8.31
2023-03-25T03:27:52.924Z,8.15
2023-03-25T03:34:05.594Z,8.06
2023-03-25T03:40:16.509Z,8.12
2023-03-25T03:46:33.845Z,8.12
2023-03-25T03:52:42.526Z,8.13
2023-03-25T03:58:46.996Z,8.27
2023-03-25T04:04:49.519Z,8.17
2023-03-25T04:11:03.749Z,8.25
2023-03-25T04:17:06.578Z,8.42
2023-03-25T04:23:09.870Z,8.47
2023-03-25T04:29:13.802Z,8.56
2023-03-25T04:35:18.445Z,8.61
2023-03-25T04:41:20.344Z,8.60
2023-03-25T04:47:25.351Z,8.80
2023-03-25T04:53:28.500Z,8.55
2023-03-25T04:59:30.860Z,8.68
2023-03-25T05:05:32.762Z,8.61
2023-03-25T05:11:39.505Z,8.81
2023-03-25T05:17:41.746Z,8.80
2023-03-25T05:23:43.876Z,8.81
2023-03-25T05:29:46.530Z,8.95
2023-03-25T05:35:48.684Z,8.91
2023-03-25T05:41:51.004Z,8.63
2023-03-25T05:47:54.194Z,8.46
2023-03-25T05:53:56.173Z,8.50
2023-03-25T05:59:58.048Z,8.61
2023-03-25T06:06:01.357Z,8.46
2023-03-25T06:12:04.416Z,8.41
2023-03-25T06:18:07.317Z,8.55
2023-03-25T06:24:09.288Z,8.73
2023-03-25T06:30:21.436Z,8.91
2023-03-25T06:36:25.552Z,8.79
2023-03-25T06:42:28.944Z,8.91
2023-03-25T06:48:30.953Z,8.91
2023-03-25T06:54:32.864Z,9.00
2023-03-25T07:00:34.765Z,9.07
2023-03-25T07:06:36.700Z,9.23
2023-03-25T07:12:38.818Z,9.05
2023-03-25T07:18:41.208Z,10.01
2023-03-25T07:24:43.514Z,9.99
2023-03-25T07:30:45.404Z,9.88
2023-03-25T07:36:47.378Z,10.16
2023-03-25T07:42:49.280Z,10.00
2023-03-25T07:48:51.262Z,10.11
2023-03-25T07:54:53.173Z,10.50
2023-03-25T08:00:58.015Z,10.63
2023-03-25T08:06:59.929Z,10.09
2023-03-25T08:13:01.806Z,9.72
2023-03-25T08:19:03.702Z,9.82
2023-03-25T08:25:06.635Z,9.75
2023-03-25T08:31:09.477Z,9.62
2023-03-25T08:37:11.385Z,9.52
2023-03-25T08:43:14.356Z,9.33
2023-03-25T08:49:16.506Z,9.66
2023-03-25T08:55:18.409Z,10.26
2023-03-25T09:01:21.968Z,10.32
2023-03-25T09:07:24.019Z,10.44
2023-03-25T09:13:26.426Z,10.37
2023-03-25T09:19:28.459Z,10.59
2023-03-25T09:25:30.439Z,10.55
2023-03-25T09:31:33.426Z,10.50
2023-03-25T09:37:35.437Z,11.15
2023-03-25T09:44:27.209Z,11.84
2023-03-25T09:50:36.702Z,12.15
2023-03-25T09:56:42.281Z,11.08
2023-03-25T10:03:11.763Z,10.37
2023-03-25T10:10:13.640Z,9.42
2023-03-25T10:16:27.044Z,9.72
2023-03-25T10:23:08.292Z,9.75
2023-03-25T10:29:20.019Z,10.25
2023-03-25T10:35:29.915Z,11.28
2023-03-25T10:41:37.363Z,11.21
2023-03-25T10:47:41.270Z,11.14
2023-03-25T10:53:52.973Z,11.38
2023-03-25T11:00:19.073Z,11.65
2023-03-25T11:06:31.739Z,12.76
2023-03-25T11:12:42.922Z,12.83
2023-03-25T11:18:45.680Z,12.51
2023-03-25T11:24:54.427Z,12.33
2023-03-25T11:31:13.176Z,12.29
2023-03-25T11:37:22.381Z,12.74
2023-03-25T11:43:31.616Z,14.16
2023-03-25T11:49:41.274Z,13.31
2023-03-25T11:55:54.491Z,14.44
2023-03-25T12:02:17.807Z,13.19
2023-03-25T12:08:19.723Z,12.73
2023-03-25T12:14:39.540Z,12.81
2023-03-25T12:21:04.089Z,13.17
2023-03-25T12:27:31.406Z,12.57
2023-03-25T12:33:54.781Z,12.12
2023-03-25T12:40:21.541Z,12.34
2023-03-25T12:46:41.783Z,12.59
2023-03-25T12:53:14.662Z,12.57
2023-03-25T12:59:42.211Z,12.76
2023-03-25T13:06:35.051Z,12.93
2023-03-25T13:12:57.082Z,12.93
2023-03-25T13:19:11.043Z,12.36
2023-03-25T13:25:45.521Z,11.49
2023-03-25T13:31:49.692Z,10.16
2023-03-25T13:38:01.317Z,9.54
2023-03-25T13:44:26.426Z,9.62
2023-03-25T13:50:32.787Z,9.79
2023-03-25T13:57:11.036Z,10.55
2023-03-25T14:03:27.816Z,13.28
2023-03-25T14:10:09.421Z,14.31
2023-03-25T14:16:24.482Z,13.94
2023-03-25T14:22:36.793Z,12.48
2023-03-25T14:28:43.831Z,11.68
2023-03-25T14:34:51.281Z,10.60
2023-03-25T14:41:02.720Z,11.53
2023-03-25T14:47:20.343Z,13.68
2023-03-25T14:53:22.702Z,14.28
2023-03-25T14:59:49.180Z,14.39
2023-03-25T15:06:00.356Z,13.51
2023-03-25T15:12:05.622Z,12.93
2023-03-25T15:18:10.432Z,12.33
2023-03-25T15:24:13.317Z,12.10
2023-03-25T15:30:31.265Z,11.99
2023-03-25T15:36:43.479Z,11.72
2023-03-25T15:43:20.640Z,12.06
2023-03-25T15:49:46.896Z,12.01
2023-03-25T15:56:22.984Z,11.89
2023-03-25T16:02:36.046Z,11.80
2023-03-25T16:08:43.089Z,11.08
2023-03-25T16:14:48.190Z,11.48
2023-03-25T16:20:59.425Z,11.63
2023-03-25T16:27:41.948Z,11.92
2023-03-25T16:33:44.581Z,12.93
2023-03-25T16:39:53.425Z,11.97
2023-03-25T16:46:02.484Z,11.56
2023-03-25T16:52:21.070Z,10.90
2023-03-25T16:58:28.052Z,10.57
2023-03-25T17:04:39.197Z,10.53
2023-03-25T17:10:50.641Z,10.53
2023-03-25T17:16:53.767Z,10.43
2023-03-25T17:23:08.379Z,10.27
2023-03-25T17:29:12.593Z,10.39
2023-03-25T17:35:30.348Z,10.18
2023-03-25T17:41:38.830Z,10.15
2023-03-25T17:47:40.729Z,10.07
2023-03-25T17:53:42.681Z,10.14
2023-03-25T17:59:45.352Z,9.98
2023-03-25T18:05:50.965Z,9.95
2023-03-25T18:11:56.244Z,9.97
2023-03-25T18:17:58.341Z,9.77
2023-03-25T18:24:00.525Z,10.08
2023-03-25T18:30:28.732Z,9.74
2023-03-25T18:36:30.658Z,9.76
2023-03-25T18:42:32.676Z,9.39
2023-03-25T18:48:34.634Z,8.82
2023-03-25T18:54:36.526Z,8.39
2023-03-25T19:00:40.230Z,8.31
2023-03-25T19:06:42.182Z,8.23
2023-03-25T19:12:45.907Z,8.42
2023-03-25T19:18:48.021Z,8.23
2023-03-25T19:24:50.457Z,7.72
2023-03-25T19:30:54.572Z,7.18
2023-03-25T19:37:02.711Z,6.96
2023-03-25T19:43:07.951Z,7.06
2023-03-25T19:49:09.854Z,7.08
2023-03-25T19:55:12.505Z,7.16
2023-03-25T20:01:14.484Z,7.22
2023-03-25T20:07:16.804Z,7.38
2023-03-25T20:13:18.786Z,7.47
2023-03-25T20:19:20.724Z,7.60
2023-03-25T20:25:22.773Z,7.45
2023-03-25T20:31:25.120Z,7.60
2023-03-25T20:37:27.230Z,7.54
2023-03-25T20:43:29.280Z,7.55
2023-03-25T20:49:33.195Z,7.59
2023-03-25T20:55:35.700Z,7.56
2023-03-25T21:01:37.645Z,7.97
2023-03-25T21:07:41.261Z,7.86
2023-03-25T21:13:43.461Z,7.77
2023-03-25T21:19:46.297Z,8.05
2023-03-25T21:25:52.018Z,7.81
2023-03-25T21:31:54.164Z,7.83
2023-03-25T21:37:56.323Z,7.93
2023-03-25T21:43:58.357Z,7.72
2023-03-25T21:50:00.354Z,7.92
2023-03-25T21:56:10.106Z,7.78
2023-03-25T22:02:14.263Z,7.88
2023-03-25T22:08:16.182Z,7.69
2023-03-25T22:14:18.084Z,7.85
2023-03-25T22:20:19.974Z,7.90
2023-03-25T22:26:23.524Z,7.96
2023-03-25T22:32:27.474Z,7.82
2023-03-25T22:38:29.584Z,8.06
2023-03-25T22:44:31.554Z,8.07
2023-03-25T22:50:34.359Z,7.97
2023-03-25T22:56:37.432Z,8.01
2023-03-25T23:02:39.988Z,7.82
2023-03-25T23:08:45.310Z,8.01
2023-03-25T23:14:54.452Z,8.01
2023-03-25T23:20:57.159Z,7.90
2023-03-25T23:26:59.072Z,7.97
2023-03-25T23:33:01.240Z,7.92
2023-03-25T23:39:07.176Z,7.76
2023-03-25T23:45:10.800Z,7.84
2023-03-25T23:51:20.284Z,7.93
2023-03-25T23:57:22.477Z,7.77
